sensor_id;sensor_type;location;lat;lon;timestamp;P1;durP1;ratioP1;P2;durP2;ratioP2
73089;SDS011;61269;49.450;8.610;2023-05-01T00:01:51;2.33;;;1.20;;
73089;SDS011;61269;49.450;8.610;2023-05-01T00:04:19;2.28;;;0.98;;
73089;SDS011;61269;49.450;8.610;2023-05-01T00:06:48;2.15;;;0.93;;
73089;SDS011;61269;49.450;8.610;2023-05-01T00:09:16;2.20;;;1.30;;
73089;SDS011;61269;49.450;8.610;2023-05-01T00:11:44;3.13;;;1.47;;
73089;SDS011;61269;49.450;8.610;2023-05-01T00:14:13;2.88;;;1.17;;
73089;SDS011;61269;49.450;8.610;2023-05-01T00:16:42;1.95;;;0.90;;
73089;SDS011;61269;49.450;8.610;2023-05-01T00:19:11;2.55;;;1.20;;
73089;SDS011;61269;49.450;8.610;2023-05-01T00:21:44;2.72;;;1.35;;
73089;SDS011;61269;49.450;8.610;2023-05-01T00:24:13;3.07;;;1.23;;
73089;SDS011;61269;49.450;8.610;2023-05-01T00:26:42;2.88;;;1.10;;
73089;SDS011;61269;49.450;8.610;2023-05-01T00:29:10;2.50;;;1.05;;
73089;SDS011;61269;49.450;8.610;2023-05-01T00:31:40;2.58;;;1.20;;
73089;SDS011;61269;49.450;8.610;2023-05-01T00:34:09;2.90;;;1.30;;
73089;SDS011;61269;49.450;8.610;2023-05-01T00:36:37;2.97;;;1.27;;
73089;SDS011;61269;49.450;8.610;2023-05-01T00:39:05;4.22;;;1.50;;
73089;SDS011;61269;49.450;8.610;2023-05-01T00:41:34;2.42;;;1.27;;
73089;SDS011;61269;49.450;8.610;2023-05-01T00:44:02;2.90;;;1.40;;
73089;SDS011;61269;49.450;8.610;2023-05-01T00:46:31;3.13;;;1.20;;
73089;SDS011;61269;49.450;8.610;2023-05-01T00:49:02;2.97;;;1.07;;
73089;SDS011;61269;49.450;8.610;2023-05-01T00:51:31;2.97;;;1.40;;
73089;SDS011;61269;49.450;8.610;2023-05-01T00:53:59;2.45;;;1.30;;
73089;SDS011;61269;49.450;8.610;2023-05-01T00:56:28;2.45;;;1.15;;
73089;SDS011;61269;49.450;8.610;2023-05-01T00:58:57;2.85;;;1.60;;
73089;SDS011;61269;49.450;8.610;2023-05-01T01:01:26;2.00;;;1.27;;
73089;SDS011;61269;49.450;8.610;2023-05-01T01:03:55;3.28;;;1.52;;
73089;SDS011;61269;49.450;8.610;2023-05-01T01:06:27;3.00;;;1.10;;
73089;SDS011;61269;49.450;8.610;2023-05-01T01:09:03;2.22;;;0.98;;
73089;SDS011;61269;49.450;8.610;2023-05-01T01:11:39;2.92;;;1.15;;
73089;SDS011;61269;49.450;8.610;2023-05-01T01:14:13;2.67;;;1.40;;
73089;SDS011;61269;49.450;8.610;2023-05-01T01:16:44;2.40;;;1.20;;
73089;SDS011;61269;49.450;8.610;2023-05-01T01:19:20;3.13;;;1.27;;
73089;SDS011;61269;49.450;8.610;2023-05-01T01:22:03;2.60;;;1.20;;
73089;SDS011;61269;49.450;8.610;2023-05-01T01:24:39;2.58;;;1.35;;
73089;SDS011;61269;49.450;8.610;2023-05-01T01:27:25;2.47;;;1.27;;
73089;SDS011;61269;49.450;8.610;2023-05-01T01:30:12;2.20;;;1.00;;
73089;SDS011;61269;49.450;8.610;2023-05-01T01:33:16;2.42;;;1.20;;
73089;SDS011;61269;49.450;8.610;2023-05-01T01:35:52;2.67;;;1.40;;
73089;SDS011;61269;49.450;8.610;2023-05-01T01:38:24;4.13;;;1.50;;
73089;SDS011;61269;49.450;8.610;2023-05-01T01:40:57;2.40;;;1.20;;
73089;SDS011;61269;49.450;8.610;2023-05-01T01:43:28;2.13;;;1.20;;
73089;SDS011;61269;49.450;8.610;2023-05-01T01:46:00;2.58;;;1.23;;
73089;SDS011;61269;49.450;8.610;2023-05-01T01:48:31;3.75;;;1.60;;
73089;SDS011;61269;49.450;8.610;2023-05-01T01:51:05;3.00;;;1.60;;
73089;SDS011;61269;49.450;8.610;2023-05-01T01:53:36;3.43;;;1.50;;
73089;SDS011;61269;49.450;8.610;2023-05-01T01:56:04;2.78;;;1.35;;
73089;SDS011;61269;49.450;8.610;2023-05-01T01:58:35;4.40;;;1.48;;
73089;SDS011;61269;49.450;8.610;2023-05-01T02:01:03;2.83;;;1.35;;
73089;SDS011;61269;49.450;8.610;2023-05-01T02:03:32;2.25;;;1.27;;
73089;SDS011;61269;49.450;8.610;2023-05-01T02:06:01;2.03;;;1.13;;
73089;SDS011;61269;49.450;8.610;2023-05-01T02:08:33;2.45;;;1.17;;
73089;SDS011;61269;49.450;8.610;2023-05-01T02:11:02;2.83;;;1.20;;
73089;SDS011;61269;49.450;8.610;2023-05-01T02:13:30;3.08;;;1.00;;
73089;SDS011;61269;49.450;8.610;2023-05-01T02:16:00;2.00;;;0.90;;
73089;SDS011;61269;49.450;8.610;2023-05-01T02:18:29;3.23;;;1.30;;
73089;SDS011;61269;49.450;8.610;2023-05-01T02:20:58;2.47;;;1.25;;
73089;SDS011;61269;49.450;8.610;2023-05-01T02:23:29;3.40;;;1.95;;
73089;SDS011;61269;49.450;8.610;2023-05-01T02:25:59;3.00;;;1.35;;
73089;SDS011;61269;49.450;8.610;2023-05-01T02:28:30;3.45;;;1.90;;
73089;SDS011;61269;49.450;8.610;2023-05-01T02:30:58;4.03;;;1.53;;
73089;SDS011;61269;49.450;8.610;2023-05-01T02:33:27;3.03;;;1.42;;
73089;SDS011;61269;49.450;8.610;2023-05-01T02:35:56;3.70;;;1.42;;
73089;SDS011;61269;49.450;8.610;2023-05-01T02:38:25;3.22;;;1.75;;
73089;SDS011;61269;49.450;8.610;2023-05-01T02:40:55;3.03;;;1.30;;
73089;SDS011;61269;49.450;8.610;2023-05-01T02:43:25;3.27;;;1.57;;
73089;SDS011;61269;49.450;8.610;2023-05-01T02:45:55;4.00;;;1.60;;
73089;SDS011;61269;49.450;8.610;2023-05-01T02:48:26;3.25;;;1.40;;
73089;SDS011;61269;49.450;8.610;2023-05-01T02:50:54;3.25;;;1.48;;
73089;SDS011;61269;49.450;8.610;2023-05-01T02:53:24;2.75;;;1.40;;
73089;SDS011;61269;49.450;8.610;2023-05-01T02:56:01;3.13;;;1.30;;
73089;SDS011;61269;49.450;8.610;2023-05-01T02:58:29;3.10;;;1.63;;
73089;SDS011;61269;49.450;8.610;2023-05-01T03:00:58;4.22;;;1.88;;
73089;SDS011;61269;49.450;8.610;2023-05-01T03:03:27;3.78;;;1.60;;
73089;SDS011;61269;49.450;8.610;2023-05-01T03:05:55;3.63;;;1.60;;
73089;SDS011;61269;49.450;8.610;2023-05-01T03:08:24;3.87;;;1.60;;
73089;SDS011;61269;49.450;8.610;2023-05-01T03:10:52;4.38;;;1.85;;
73089;SDS011;61269;49.450;8.610;2023-05-01T03:13:22;2.80;;;1.50;;
73089;SDS011;61269;49.450;8.610;2023-05-01T03:15:50;4.55;;;2.08;;
73089;SDS011;61269;49.450;8.610;2023-05-01T03:18:19;4.25;;;1.60;;
73089;SDS011;61269;49.450;8.610;2023-05-01T03:20:51;2.70;;;1.50;;
73089;SDS011;61269;49.450;8.610;2023-05-01T03:23:20;3.65;;;1.70;;
73089;SDS011;61269;49.450;8.610;2023-05-01T03:25:48;2.90;;;1.35;;
73089;SDS011;61269;49.450;8.610;2023-05-01T03:28:17;4.18;;;1.50;;
73089;SDS011;61269;49.450;8.610;2023-05-01T03:30:48;2.90;;;1.50;;
73089;SDS011;61269;49.450;8.610;2023-05-01T03:33:17;4.07;;;1.60;;
73089;SDS011;61269;49.450;8.610;2023-05-01T03:35:45;3.78;;;1.60;;
73089;SDS011;61269;49.450;8.610;2023-05-01T03:38:14;4.53;;;1.60;;
73089;SDS011;61269;49.450;8.610;2023-05-01T03:41:11;4.03;;;1.52;;
73089;SDS011;61269;49.450;8.610;2023-05-01T03:43:58;3.25;;;1.80;;
73089;SDS011;61269;49.450;8.610;2023-05-01T03:46:33;4.17;;;1.70;;
73089;SDS011;61269;49.450;8.610;2023-05-01T03:49:01;4.60;;;1.40;;
73089;SDS011;61269;49.450;8.610;2023-05-01T03:51:34;4.28;;;1.33;;
73089;SDS011;61269;49.450;8.610;2023-05-01T03:54:02;3.58;;;1.52;;
73089;SDS011;61269;49.450;8.610;2023-05-01T03:56:43;3.88;;;1.60;;
73089;SDS011;61269;49.450;8.610;2023-05-01T03:59:11;3.27;;;1.40;;
73089;SDS011;61269;49.450;8.610;2023-05-01T04:01:41;3.80;;;1.55;;
73089;SDS011;61269;49.450;8.610;2023-05-01T04:04:10;4.03;;;1.58;;
73089;SDS011;61269;49.450;8.610;2023-05-01T04:06:42;3.28;;;1.48;;
73089;SDS011;61269;49.450;8.610;2023-05-01T04:09:10;3.03;;;1.58;;
73089;SDS011;61269;49.450;8.610;2023-05-01T04:11:38;3.47;;;1.90;;
73089;SDS011;61269;49.450;8.610;2023-05-01T04:14:06;5.45;;;1.90;;
73089;SDS011;61269;49.450;8.610;2023-05-01T04:16:35;3.63;;;1.70;;
73089;SDS011;61269;49.450;8.610;2023-05-01T04:19:05;4.43;;;1.67;;
73089;SDS011;61269;49.450;8.610;2023-05-01T04:21:36;2.70;;;1.35;;
73089;SDS011;61269;49.450;8.610;2023-05-01T04:24:04;3.83;;;1.70;;
73089;SDS011;61269;49.450;8.610;2023-05-01T04:26:33;3.00;;;1.45;;
73089;SDS011;61269;49.450;8.610;2023-05-01T04:29:01;4.07;;;1.60;;
73089;SDS011;61269;49.450;8.610;2023-05-01T04:31:30;3.25;;;1.60;;
73089;SDS011;61269;49.450;8.610;2023-05-01T04:33:58;3.38;;;1.60;;
73089;SDS011;61269;49.450;8.610;2023-05-01T04:36:28;3.63;;;1.50;;
73089;SDS011;61269;49.450;8.610;2023-05-01T04:38:59;4.45;;;1.77;;
73089;SDS011;61269;49.450;8.610;2023-05-01T04:41:28;3.35;;;1.33;;
73089;SDS011;61269;49.450;8.610;2023-05-01T04:43:57;4.13;;;1.77;;
73089;SDS011;61269;49.450;8.610;2023-05-01T04:46:25;3.17;;;1.50;;
73089;SDS011;61269;49.450;8.610;2023-05-01T04:48:54;2.93;;;1.50;;
73089;SDS011;61269;49.450;8.610;2023-05-01T04:51:22;3.20;;;1.40;;
73089;SDS011;61269;49.450;8.610;2023-05-01T04:53:52;4.07;;;1.50;;
73089;SDS011;61269;49.450;8.610;2023-05-01T04:56:24;3.20;;;1.52;;
73089;SDS011;61269;49.450;8.610;2023-05-01T04:58:58;3.95;;;1.90;;
73089;SDS011;61269;49.450;8.610;2023-05-01T05:01:28;2.73;;;1.67;;
73089;SDS011;61269;49.450;8.610;2023-05-01T05:03:57;4.88;;;1.80;;
73089;SDS011;61269;49.450;8.610;2023-05-01T05:06:26;4.10;;;1.73;;
73089;SDS011;61269;49.450;8.610;2023-05-01T05:08:56;3.75;;;1.80;;
73089;SDS011;61269;49.450;8.610;2023-05-01T05:11:24;4.68;;;1.77;;
73089;SDS011;61269;49.450;8.610;2023-05-01T05:13:57;5.03;;;2.43;;
73089;SDS011;61269;49.450;8.610;2023-05-01T05:16:26;5.70;;;2.47;;
73089;SDS011;61269;49.450;8.610;2023-05-01T05:18:54;3.90;;;1.80;;
73089;SDS011;61269;49.450;8.610;2023-05-01T05:21:25;3.95;;;1.90;;
73089;SDS011;61269;49.450;8.610;2023-05-01T05:23:57;3.88;;;1.80;;
73089;SDS011;61269;49.450;8.610;2023-05-01T05:26:26;4.00;;;2.23;;
73089;SDS011;61269;49.450;8.610;2023-05-01T05:28:57;3.28;;;1.77;;
73089;SDS011;61269;49.450;8.610;2023-05-01T05:31:26;3.00;;;1.80;;
73089;SDS011;61269;49.450;8.610;2023-05-01T05:33:54;5.97;;;1.80;;
73089;SDS011;61269;49.450;8.610;2023-05-01T05:36:22;3.28;;;1.90;;
73089;SDS011;61269;49.450;8.610;2023-05-01T05:38:53;3.83;;;2.00;;
73089;SDS011;61269;49.450;8.610;2023-05-01T05:41:22;4.50;;;1.98;;
73089;SDS011;61269;49.450;8.610;2023-05-01T05:43:56;4.53;;;2.00;;
73089;SDS011;61269;49.450;8.610;2023-05-01T05:46:24;4.10;;;1.83;;
73089;SDS011;61269;49.450;8.610;2023-05-01T05:48:52;3.58;;;1.75;;
73089;SDS011;61269;49.450;8.610;2023-05-01T05:51:20;3.33;;;1.80;;
73089;SDS011;61269;49.450;8.610;2023-05-01T05:53:49;4.13;;;1.70;;
73089;SDS011;61269;49.450;8.610;2023-05-01T05:56:17;3.53;;;1.77;;
73089;SDS011;61269;49.450;8.610;2023-05-01T05:58:46;4.30;;;1.73;;
73089;SDS011;61269;49.450;8.610;2023-05-01T06:01:14;3.30;;;1.50;;
73089;SDS011;61269;49.450;8.610;2023-05-01T06:03:43;4.63;;;2.00;;
73089;SDS011;61269;49.450;8.610;2023-05-01T06:06:12;4.50;;;1.85;;
73089;SDS011;61269;49.450;8.610;2023-05-01T06:08:40;3.60;;;1.70;;
73089;SDS011;61269;49.450;8.610;2023-05-01T06:11:11;4.22;;;1.60;;
73089;SDS011;61269;49.450;8.610;2023-05-01T06:13:39;4.45;;;1.90;;
73089;SDS011;61269;49.450;8.610;2023-05-01T06:16:08;7.17;;;2.20;;
73089;SDS011;61269;49.450;8.610;2023-05-01T06:18:37;6.10;;;1.50;;
73089;SDS011;61269;49.450;8.610;2023-05-01T06:21:05;4.05;;;1.80;;
73089;SDS011;61269;49.450;8.610;2023-05-01T06:23:34;4.95;;;2.15;;
73089;SDS011;61269;49.450;8.610;2023-05-01T06:26:24;3.63;;;1.63;;
73089;SDS011;61269;49.450;8.610;2023-05-01T06:28:52;3.70;;;1.53;;
73089;SDS011;61269;49.450;8.610;2023-05-01T06:31:22;4.25;;;1.85;;
73089;SDS011;61269;49.450;8.610;2023-05-01T06:33:54;5.25;;;1.95;;
73089;SDS011;61269;49.450;8.610;2023-05-01T06:36:34;4.10;;;1.90;;
73089;SDS011;61269;49.450;8.610;2023-05-01T06:39:03;3.75;;;2.10;;
73089;SDS011;61269;49.450;8.610;2023-05-01T06:41:31;4.40;;;2.03;;
73089;SDS011;61269;49.450;8.610;2023-05-01T06:44:00;3.47;;;1.73;;
73089;SDS011;61269;49.450;8.610;2023-05-01T06:46:29;5.13;;;2.00;;
73089;SDS011;61269;49.450;8.610;2023-05-01T06:48:58;4.40;;;1.90;;
73089;SDS011;61269;49.450;8.610;2023-05-01T06:51:26;3.97;;;1.70;;
73089;SDS011;61269;49.450;8.610;2023-05-01T06:53:54;6.23;;;2.10;;
73089;SDS011;61269;49.450;8.610;2023-05-01T06:56:22;4.25;;;2.00;;
73089;SDS011;61269;49.450;8.610;2023-05-01T06:58:51;3.50;;;1.48;;
73089;SDS011;61269;49.450;8.610;2023-05-01T07:01:19;4.15;;;1.80;;
73089;SDS011;61269;49.450;8.610;2023-05-01T07:03:49;4.75;;;1.80;;
73089;SDS011;61269;49.450;8.610;2023-05-01T07:06:17;3.40;;;1.63;;
73089;SDS011;61269;49.450;8.610;2023-05-01T07:08:45;4.95;;;2.10;;
73089;SDS011;61269;49.450;8.610;2023-05-01T07:11:14;3.60;;;1.88;;
73089;SDS011;61269;49.450;8.610;2023-05-01T07:13:42;3.50;;;1.70;;
73089;SDS011;61269;49.450;8.610;2023-05-01T07:16:10;4.90;;;2.00;;
73089;SDS011;61269;49.450;8.610;2023-05-01T07:18:39;3.67;;;1.83;;
73089;SDS011;61269;49.450;8.610;2023-05-01T07:21:08;5.57;;;2.08;;
73089;SDS011;61269;49.450;8.610;2023-05-01T07:23:37;5.40;;;2.00;;
73089;SDS011;61269;49.450;8.610;2023-05-01T07:26:05;5.10;;;2.10;;
73089;SDS011;61269;49.450;8.610;2023-05-01T07:28:34;3.63;;;1.60;;
73089;SDS011;61269;49.450;8.610;2023-05-01T07:31:02;4.77;;;2.00;;
73089;SDS011;61269;49.450;8.610;2023-05-01T07:33:30;4.50;;;2.00;;
73089;SDS011;61269;49.450;8.610;2023-05-01T07:35:58;3.88;;;1.95;;
73089;SDS011;61269;49.450;8.610;2023-05-01T07:38:28;4.15;;;2.10;;
73089;SDS011;61269;49.450;8.610;2023-05-01T07:40:56;5.63;;;1.98;;
73089;SDS011;61269;49.450;8.610;2023-05-01T07:43:24;3.80;;;1.63;;
73089;SDS011;61269;49.450;8.610;2023-05-01T07:45:55;5.03;;;2.35;;
73089;SDS011;61269;49.450;8.610;2023-05-01T07:48:25;4.70;;;2.10;;
73089;SDS011;61269;49.450;8.610;2023-05-01T07:50:53;5.70;;;1.88;;
73089;SDS011;61269;49.450;8.610;2023-05-01T07:53:22;3.95;;;1.70;;
73089;SDS011;61269;49.450;8.610;2023-05-01T07:55:51;3.93;;;1.97;;
73089;SDS011;61269;49.450;8.610;2023-05-01T07:58:20;4.78;;;2.17;;
73089;SDS011;61269;49.450;8.610;2023-05-01T08:00:48;4.93;;;2.28;;
73089;SDS011;61269;49.450;8.610;2023-05-01T08:03:16;5.78;;;2.20;;
73089;SDS011;61269;49.450;8.610;2023-05-01T08:05:45;4.10;;;2.10;;
73089;SDS011;61269;49.450;8.610;2023-05-01T08:08:13;6.87;;;2.53;;
73089;SDS011;61269;49.450;8.610;2023-05-01T08:10:46;4.70;;;2.53;;
73089;SDS011;61269;49.450;8.610;2023-05-01T08:13:15;4.45;;;2.13;;
73089;SDS011;61269;49.450;8.610;2023-05-01T08:15:44;4.63;;;2.10;;
73089;SDS011;61269;49.450;8.610;2023-05-01T08:18:13;5.40;;;2.35;;
73089;SDS011;61269;49.450;8.610;2023-05-01T08:20:45;5.43;;;2.30;;
73089;SDS011;61269;49.450;8.610;2023-05-01T08:23:15;6.00;;;2.60;;
73089;SDS011;61269;49.450;8.610;2023-05-01T08:25:43;4.60;;;2.17;;
73089;SDS011;61269;49.450;8.610;2023-05-01T08:28:13;5.45;;;2.38;;
73089;SDS011;61269;49.450;8.610;2023-05-01T08:30:42;4.80;;;2.30;;
73089;SDS011;61269;49.450;8.610;2023-05-01T08:33:11;5.37;;;2.43;;
73089;SDS011;61269;49.450;8.610;2023-05-01T08:35:39;5.30;;;2.33;;
73089;SDS011;61269;49.450;8.610;2023-05-01T08:38:08;3.75;;;2.00;;
73089;SDS011;61269;49.450;8.610;2023-05-01T08:40:37;4.43;;;1.85;;
73089;SDS011;61269;49.450;8.610;2023-05-01T08:43:06;5.60;;;2.13;;
73089;SDS011;61269;49.450;8.610;2023-05-01T08:45:35;4.20;;;2.10;;
73089;SDS011;61269;49.450;8.610;2023-05-01T08:48:05;4.72;;;2.15;;
73089;SDS011;61269;49.450;8.610;2023-05-01T08:50:36;4.70;;;2.10;;
73089;SDS011;61269;49.450;8.610;2023-05-01T08:53:06;5.53;;;2.55;;
73089;SDS011;61269;49.450;8.610;2023-05-01T08:55:35;6.80;;;2.78;;
73089;SDS011;61269;49.450;8.610;2023-05-01T08:58:04;5.77;;;2.30;;
73089;SDS011;61269;49.450;8.610;2023-05-01T09:00:34;5.22;;;2.53;;
73089;SDS011;61269;49.450;8.610;2023-05-01T09:03:04;5.07;;;2.47;;
73089;SDS011;61269;49.450;8.610;2023-05-01T09:05:34;4.53;;;2.03;;
73089;SDS011;61269;49.450;8.610;2023-05-01T09:08:02;4.53;;;2.30;;
73089;SDS011;61269;49.450;8.610;2023-05-01T09:10:30;5.23;;;2.30;;
73089;SDS011;61269;49.450;8.610;2023-05-01T09:13:00;5.47;;;2.08;;
73089;SDS011;61269;49.450;8.610;2023-05-01T09:15:28;4.20;;;1.60;;
73089;SDS011;61269;49.450;8.610;2023-05-01T09:17:58;5.70;;;2.17;;
73089;SDS011;61269;49.450;8.610;2023-05-01T09:20:31;3.75;;;2.10;;
73089;SDS011;61269;49.450;8.610;2023-05-01T09:22:59;5.33;;;2.30;;
73089;SDS011;61269;49.450;8.610;2023-05-01T09:25:27;4.82;;;2.13;;
73089;SDS011;61269;49.450;8.610;2023-05-01T09:27:56;4.55;;;1.75;;
73089;SDS011;61269;49.450;8.610;2023-05-01T09:30:31;3.78;;;1.75;;
73089;SDS011;61269;49.450;8.610;2023-05-01T09:33:04;5.40;;;2.25;;
73089;SDS011;61269;49.450;8.610;2023-05-01T09:35:48;3.97;;;2.20;;
73089;SDS011;61269;49.450;8.610;2023-05-01T09:38:17;5.22;;;2.28;;
73089;SDS011;61269;49.450;8.610;2023-05-01T09:40:46;5.38;;;2.15;;
73089;SDS011;61269;49.450;8.610;2023-05-01T09:43:22;4.75;;;2.10;;
73089;SDS011;61269;49.450;8.610;2023-05-01T09:45:59;4.80;;;1.90;;
73089;SDS011;61269;49.450;8.610;2023-05-01T09:48:29;4.20;;;1.90;;
73089;SDS011;61269;49.450;8.610;2023-05-01T09:51:08;3.72;;;1.75;;
73089;SDS011;61269;49.450;8.610;2023-05-01T09:53:46;5.22;;;2.47;;
73089;SDS011;61269;49.450;8.610;2023-05-01T09:56:15;5.70;;;1.90;;
73089;SDS011;61269;49.450;8.610;2023-05-01T09:58:43;5.78;;;2.35;;
73089;SDS011;61269;49.450;8.610;2023-05-01T10:01:12;4.67;;;2.53;;
73089;SDS011;61269;49.450;8.610;2023-05-01T10:03:41;5.78;;;2.22;;
73089;SDS011;61269;49.450;8.610;2023-05-01T10:06:12;5.20;;;2.45;;
73089;SDS011;61269;49.450;8.610;2023-05-01T10:08:54;4.45;;;2.33;;
73089;SDS011;61269;49.450;8.610;2023-05-01T10:11:22;5.35;;;2.28;;
73089;SDS011;61269;49.450;8.610;2023-05-01T10:14:06;4.60;;;1.90;;
73089;SDS011;61269;49.450;8.610;2023-05-01T10:16:35;3.58;;;1.75;;
73089;SDS011;61269;49.450;8.610;2023-05-01T10:19:05;4.93;;;2.13;;
73089;SDS011;61269;49.450;8.610;2023-05-01T10:21:34;4.88;;;2.05;;
73089;SDS011;61269;49.450;8.610;2023-05-01T10:24:03;4.88;;;2.30;;
73089;SDS011;61269;49.450;8.610;2023-05-01T10:26:33;4.33;;;2.00;;
73089;SDS011;61269;49.450;8.610;2023-05-01T10:29:02;3.95;;;1.90;;
73089;SDS011;61269;49.450;8.610;2023-05-01T10:31:30;4.53;;;2.10;;
73089;SDS011;61269;49.450;8.610;2023-05-01T10:33:59;5.32;;;2.22;;
73089;SDS011;61269;49.450;8.610;2023-05-01T10:36:30;4.10;;;1.63;;
73089;SDS011;61269;49.450;8.610;2023-05-01T10:39:02;5.20;;;1.73;;
73089;SDS011;61269;49.450;8.610;2023-05-01T10:44:30;5.57;;;1.88;;
73089;SDS011;61269;49.450;8.610;2023-05-01T10:50:04;5.15;;;2.53;;
73089;SDS011;61269;49.450;8.610;2023-05-01T10:55:41;3.72;;;1.80;;
73089;SDS011;61269;49.450;8.610;2023-05-01T10:58:10;6.07;;;2.17;;
73089;SDS011;61269;49.450;8.610;2023-05-01T11:00:39;4.40;;;2.33;;
73089;SDS011;61269;49.450;8.610;2023-05-01T11:06:04;4.30;;;2.23;;
73089;SDS011;61269;49.450;8.610;2023-05-01T11:08:33;5.45;;;1.95;;
73089;SDS011;61269;49.450;8.610;2023-05-01T11:14:10;5.22;;;2.08;;
73089;SDS011;61269;49.450;8.610;2023-05-01T11:16:39;5.68;;;2.55;;
73089;SDS011;61269;49.450;8.610;2023-05-01T11:19:08;4.63;;;2.20;;
73089;SDS011;61269;49.450;8.610;2023-05-01T11:21:38;5.30;;;2.40;;
73089;SDS011;61269;49.450;8.610;2023-05-01T11:24:07;6.53;;;2.47;;
73089;SDS011;61269;49.450;8.610;2023-05-01T11:26:36;5.00;;;2.50;;
73089;SDS011;61269;49.450;8.610;2023-05-01T11:29:08;6.22;;;2.20;;
73089;SDS011;61269;49.450;8.610;2023-05-01T11:31:38;5.07;;;2.20;;
73089;SDS011;61269;49.450;8.610;2023-05-01T11:34:07;4.78;;;2.25;;
73089;SDS011;61269;49.450;8.610;2023-05-01T11:36:46;4.65;;;2.10;;
73089;SDS011;61269;49.450;8.610;2023-05-01T11:39:14;5.03;;;2.40;;
73089;SDS011;61269;49.450;8.610;2023-05-01T11:41:44;5.82;;;2.28;;
73089;SDS011;61269;49.450;8.610;2023-05-01T11:44:15;5.10;;;2.10;;
73089;SDS011;61269;49.450;8.610;2023-05-01T11:46:44;4.70;;;2.50;;
73089;SDS011;61269;49.450;8.610;2023-05-01T11:49:12;4.88;;;2.40;;
73089;SDS011;61269;49.450;8.610;2023-05-01T11:51:41;5.07;;;2.50;;
73089;SDS011;61269;49.450;8.610;2023-05-01T11:54:09;4.65;;;2.10;;
73089;SDS011;61269;49.450;8.610;2023-05-01T11:56:41;6.20;;;2.70;;
73089;SDS011;61269;49.450;8.610;2023-05-01T11:59:10;5.35;;;2.67;;
73089;SDS011;61269;49.450;8.610;2023-05-01T12:01:42;6.15;;;2.60;;
73089;SDS011;61269;49.450;8.610;2023-05-01T12:04:11;5.68;;;2.65;;
73089;SDS011;61269;49.450;8.610;2023-05-01T12:06:41;5.68;;;2.40;;
73089;SDS011;61269;49.450;8.610;2023-05-01T12:09:14;4.60;;;2.10;;
73089;SDS011;61269;49.450;8.610;2023-05-01T12:11:44;4.97;;;2.35;;
73089;SDS011;61269;49.450;8.610;2023-05-01T12:14:14;4.45;;;1.92;;
73089;SDS011;61269;49.450;8.610;2023-05-01T12:16:44;4.63;;;2.08;;
73089;SDS011;61269;49.450;8.610;2023-05-01T12:19:13;4.97;;;2.50;;
73089;SDS011;61269;49.450;8.610;2023-05-01T12:21:43;5.13;;;2.67;;
73089;SDS011;61269;49.450;8.610;2023-05-01T12:24:12;5.13;;;2.45;;
73089;SDS011;61269;49.450;8.610;2023-05-01T12:26:42;5.25;;;2.30;;
73089;SDS011;61269;49.450;8.610;2023-05-01T12:29:10;5.07;;;2.22;;
73089;SDS011;61269;49.450;8.610;2023-05-01T12:31:47;4.10;;;1.70;;
73089;SDS011;61269;49.450;8.610;2023-05-01T12:34:16;5.50;;;2.13;;
73089;SDS011;61269;49.450;8.610;2023-05-01T12:36:51;4.07;;;1.90;;
73089;SDS011;61269;49.450;8.610;2023-05-01T12:39:20;4.22;;;2.08;;
73089;SDS011;61269;49.450;8.610;2023-05-01T12:41:49;5.72;;;2.40;;
73089;SDS011;61269;49.450;8.610;2023-05-01T12:44:21;4.50;;;2.10;;
73089;SDS011;61269;49.450;8.610;2023-05-01T12:46:57;4.13;;;2.10;;
73089;SDS011;61269;49.450;8.610;2023-05-01T12:49:28;4.50;;;1.98;;
73089;SDS011;61269;49.450;8.610;2023-05-01T12:51:58;4.20;;;1.90;;
73089;SDS011;61269;49.450;8.610;2023-05-01T12:54:27;4.30;;;1.80;;
73089;SDS011;61269;49.450;8.610;2023-05-01T12:59:44;5.83;;;1.83;;
73089;SDS011;61269;49.450;8.610;2023-05-01T13:02:16;4.32;;;1.90;;
73089;SDS011;61269;49.450;8.610;2023-05-01T13:04:45;4.00;;;1.88;;
73089;SDS011;61269;49.450;8.610;2023-05-01T13:07:17;6.90;;;1.73;;
73089;SDS011;61269;49.450;8.610;2023-05-01T13:09:52;5.03;;;2.50;;
73089;SDS011;61269;49.450;8.610;2023-05-01T13:12:21;3.53;;;1.67;;
73089;SDS011;61269;49.450;8.610;2023-05-01T13:14:50;5.15;;;2.25;;
73089;SDS011;61269;49.450;8.610;2023-05-01T13:17:23;4.38;;;2.10;;
73089;SDS011;61269;49.450;8.610;2023-05-01T13:19:52;4.60;;;2.15;;
73089;SDS011;61269;49.450;8.610;2023-05-01T13:22:31;4.43;;;1.95;;
73089;SDS011;61269;49.450;8.610;2023-05-01T13:25:00;4.07;;;1.90;;
73089;SDS011;61269;49.450;8.610;2023-05-01T13:27:29;4.50;;;2.05;;
73089;SDS011;61269;49.450;8.610;2023-05-01T13:29:58;5.38;;;2.03;;
73089;SDS011;61269;49.450;8.610;2023-05-01T13:32:28;5.00;;;1.65;;
73089;SDS011;61269;49.450;8.610;2023-05-01T13:34:58;4.50;;;2.05;;
73089;SDS011;61269;49.450;8.610;2023-05-01T13:37:27;4.30;;;1.77;;
73089;SDS011;61269;49.450;8.610;2023-05-01T13:39:56;4.45;;;1.67;;
73089;SDS011;61269;49.450;8.610;2023-05-01T13:42:25;3.67;;;1.65;;
73089;SDS011;61269;49.450;8.610;2023-05-01T13:44:54;4.53;;;1.98;;
73089;SDS011;61269;49.450;8.610;2023-05-01T13:47:23;4.80;;;1.90;;
73089;SDS011;61269;49.450;8.610;2023-05-01T13:49:54;4.17;;;1.70;;
73089;SDS011;61269;49.450;8.610;2023-05-01T13:52:23;4.93;;;1.80;;
73089;SDS011;61269;49.450;8.610;2023-05-01T13:54:52;4.63;;;1.80;;
73089;SDS011;61269;49.450;8.610;2023-05-01T13:57:23;4.63;;;2.13;;
73089;SDS011;61269;49.450;8.610;2023-05-01T13:59:51;3.83;;;1.73;;
73089;SDS011;61269;49.450;8.610;2023-05-01T14:02:25;3.37;;;1.50;;
73089;SDS011;61269;49.450;8.610;2023-05-01T14:04:58;4.32;;;1.70;;
73089;SDS011;61269;49.450;8.610;2023-05-01T14:07:27;3.78;;;1.73;;
73089;SDS011;61269;49.450;8.610;2023-05-01T14:09:56;4.13;;;1.80;;
73089;SDS011;61269;49.450;8.610;2023-05-01T14:12:28;3.63;;;1.45;;
73089;SDS011;61269;49.450;8.610;2023-05-01T14:15:00;3.40;;;1.50;;
73089;SDS011;61269;49.450;8.610;2023-05-01T14:17:31;3.08;;;1.30;;
73089;SDS011;61269;49.450;8.610;2023-05-01T14:20:01;3.63;;;1.60;;
73089;SDS011;61269;49.450;8.610;2023-05-01T14:22:33;4.63;;;2.47;;
73089;SDS011;61269;49.450;8.610;2023-05-01T14:25:07;5.18;;;1.98;;
73089;SDS011;61269;49.450;8.610;2023-05-01T14:27:47;3.73;;;1.73;;
73089;SDS011;61269;49.450;8.610;2023-05-01T14:30:18;3.35;;;1.50;;
73089;SDS011;61269;49.450;8.610;2023-05-01T14:32:54;4.00;;;1.60;;
73089;SDS011;61269;49.450;8.610;2023-05-01T14:35:23;4.20;;;1.92;;
73089;SDS011;61269;49.450;8.610;2023-05-01T14:37:52;9.20;;;2.85;;
73089;SDS011;61269;49.450;8.610;2023-05-01T14:40:23;4.20;;;1.50;;
73089;SDS011;61269;49.450;8.610;2023-05-01T14:42:56;3.35;;;1.60;;
73089;SDS011;61269;49.450;8.610;2023-05-01T14:45:24;4.03;;;1.50;;
73089;SDS011;61269;49.450;8.610;2023-05-01T14:47:53;2.85;;;1.30;;
73089;SDS011;61269;49.450;8.610;2023-05-01T14:50:21;2.80;;;1.20;;
73089;SDS011;61269;49.450;8.610;2023-05-01T14:52:54;3.70;;;1.57;;
73089;SDS011;61269;49.450;8.610;2023-05-01T14:55:24;3.55;;;1.42;;
73089;SDS011;61269;49.450;8.610;2023-05-01T14:57:55;2.88;;;1.15;;
73089;SDS011;61269;49.450;8.610;2023-05-01T15:00:26;3.35;;;1.23;;
73089;SDS011;61269;49.450;8.610;2023-05-01T15:02:57;2.38;;;1.17;;
73089;SDS011;61269;49.450;8.610;2023-05-01T15:05:25;2.80;;;1.10;;
73089;SDS011;61269;49.450;8.610;2023-05-01T15:07:56;3.00;;;1.42;;
73089;SDS011;61269;49.450;8.610;2023-05-01T15:10:26;2.65;;;1.15;;
73089;SDS011;61269;49.450;8.610;2023-05-01T15:12:54;2.60;;;1.20;;
73089;SDS011;61269;49.450;8.610;2023-05-01T15:15:22;5.32;;;1.27;;
73089;SDS011;61269;49.450;8.610;2023-05-01T15:17:51;2.73;;;0.93;;
73089;SDS011;61269;49.450;8.610;2023-05-01T15:20:20;2.85;;;1.38;;
73089;SDS011;61269;49.450;8.610;2023-05-01T15:22:48;3.65;;;1.40;;
73089;SDS011;61269;49.450;8.610;2023-05-01T15:25:17;2.40;;;1.20;;